Historique des mesures à Cassis (13260), France
Quotidien Résumé Septembre 22, 2021 Unités:  Métrique    US   Métrique/US
Quotidien Hebdomadaire Mensuel Annuel
  Maximum: Minimum: Moyenne:
Température: 15.9 °C 9.2 °C 12.3 °C
Point de rosée: 12.1 °C 7.3 °C 9.9 °C
Humidité: 91% 78% 86%
Vitesse du vent: 17.3km/h 0km/h 3.5km/h
Rafales: 23.4km/h - -
Vent- - WNW
Pression: 1010.7 hPa 1004.6 hPa -
Précipitations: 1.0 mm    
Historical Graphs
 
 
Mesures pour : Septembre 22, 2021
Heure Temperature Point de rosée Pression Vent Vitesse du vent Rafales Humidité Pluie (par heure)
00:10 10.9 °C 9.5 °C 1005.6 hPa Calm   3.2 km/h 91% 0.0 mm
01:11 10.5 °C 8.9 °C 1005.5 hPa NNW 7.6 km/h 7.6 km/h 90% 0.0 mm
02:10 10.2 °C 8.6 °C 1004.9 hPa NW 17.3 km/h 18 km/h 90% 0.0 mm
03:11 10.1 °C 8.3 °C 1004.9 hPa Calm   11.5 km/h 89% 0.0 mm
04:10 9.9 °C 8.1 °C 1004.6 hPa Calm   7.2 km/h 89% 0.0 mm
05:11 9.5 °C 7.8 °C 1004.8 hPa NW 5.4 km/h 15.1 km/h 89% 0.0 mm
06:10 9.2 °C 7.3 °C 1005.3 hPa WNW 11.9 km/h 23.4 km/h 88% 0.0 mm
07:11 9.4 °C 7.5 °C 1005.2 hPa NW 16.9 km/h 16.9 km/h 88% 0.0 mm
08:10 9.9 °C 7.8 °C 1005.9 hPa NW 5.8 km/h 8.6 km/h 87% 0.0 mm
09:11 10.6 °C 8.3 °C 1006.1 hPa Calm   3.6 km/h 86% 0.0 mm
10:10 12.6 °C 9.9 °C 1006.7 hPa Calm   6.1 km/h 84% 0.0 mm
11:11 14.3 °C 11.3 °C 1007.1 hPa Calm   1.8 km/h 82% 0.0 mm
12:10 15 °C 11.5 °C 1007.1 hPa Calm   3.6 km/h 80% 0.0 mm
13:11 15.4 °C 12 °C 1007.0 hPa Calm   3.6 km/h 80% 0.0 mm
14:10 15.9 °C 12.1 °C 1006.9 hPa Calm   4.3 km/h 78% 0.0 mm
15:11 15.8 °C 12 °C 1006.9 hPa Calm     78% 0.0 mm
16:10 15.1 °C 11.7 °C 1007.7 hPa Calm     80% 0.0 mm
17:11 14.3 °C 11.4 °C 1008.1 hPa Calm     83% 1.0 mm
18:10 13.5 °C 11.2 °C 1008.4 hPa Calm   10.1 km/h 86% 0.0 mm
19:11 13.1 °C 11 °C 1009.0 hPa NW 3.2 km/h 5 km/h 87% 0.0 mm
20:10 12.5 °C 10.4 °C 1009.4 hPa NW 4.7 km/h 6.1 km/h 87% 0.0 mm
21:11 12.4 °C 10.1 °C 1009.7 hPa Calm   5 km/h 86% 0.0 mm
22:10 11.9 °C 9.8 °C 1010.2 hPa North 4.7 km/h 12.2 km/h 87% 0.0 mm
23:11 12 °C 9.9 °C 1010.7 hPa NNW 6.8 km/h 7.9 km/h 87% 0.0 mm
Observations météo à CASSIS
WU-History script by Weather Underground - 2 mb